Time;durP1;ratioP1;P1;durP2;ratioP2;P2;SDS_P1;SDS_P2;PMS_P1;PMS_P2;Temp;Humidity;BMP_temperature;BMP_pressure;BME280_temperature;BME280_humidity;BME280_pressure;Samples;Min_cycle;Max_cycle;Signal;HPM_P1;HPM_P2
2022/07/21 00:00:00;;;;;;;5.15;2.75;;;25.30;61.00;;;;;;5072102;28;20059;-62
2022/07/21 00:02:26;;;;;;;5.03;2.70;;;25.40;61.00;;;;;;5054591;28;20230;-62
2022/07/21 00:04:53;;;;;;;4.93;3.00;;;25.30;61.00;;;;;;5071485;28;20119;-62
2022/07/21 00:07:18;;;;;;;5.57;2.67;;;25.30;61.10;;;;;;5075158;28;20049;-62
2022/07/21 00:09:44;;;;;;;4.85;2.75;;;25.30;61.10;;;;;;5075085;28;20044;-62
2022/07/21 00:12:09;;;;;;;5.10;2.75;;;25.40;61.20;;;;;;5075518;28;20044;-62
2022/07/21 00:14:35;;;;;;;6.68;3.20;;;25.30;61.10;;;;;;5074720;28;20090;-62
2022/07/21 00:17:00;;;;;;;5.90;3.10;;;25.30;61.20;;;;;;5075973;28;20549;-62
2022/07/21 00:19:26;;;;;;;6.28;2.90;;;25.30;61.20;;;;;;5075798;28;20496;-62
2022/07/21 00:21:51;;;;;;;6.30;2.90;;;25.30;61.20;;;;;;5074741;28;20098;-62
2022/07/21 00:24:17;;;;;;;5.60;3.28;;;25.30;61.30;;;;;;5076078;28;20392;-62
2022/07/21 00:26:43;;;;;;;3.85;2.47;;;25.30;61.30;;;;;;5074187;28;20136;-62
2022/07/21 00:29:08;;;;;;;5.63;2.60;;;25.30;61.40;;;;;;5074779;28;20044;-62
2022/07/21 00:31:34;;;;;;;6.20;3.15;;;25.30;61.30;;;;;;5073795;28;20052;-62
2022/07/21 00:33:59;;;;;;;4.63;2.40;;;25.30;61.40;;;;;;5075969;28;20045;-62
2022/07/21 00:36:25;;;;;;;4.07;2.38;;;25.30;61.40;;;;;;5074994;28;20086;-62
2022/07/21 00:38:50;;;;;;;5.40;2.95;;;25.30;61.40;;;;;;5074834;28;20130;-62
2022/07/21 00:41:16;;;;;;;4.90;2.88;;;25.30;61.50;;;;;;5075835;28;20049;-62
2022/07/21 00:43:41;;;;;;;4.43;2.75;;;25.30;61.50;;;;;;5075698;28;20046;-62
2022/07/21 00:46:07;;;;;;;6.32;3.17;;;25.30;61.50;;;;;;5074496;28;20048;-62
2022/07/21 00:48:33;;;;;;;4.45;2.65;;;25.30;61.50;;;;;;5075565;28;20467;-62
2022/07/21 00:50:58;;;;;;;4.38;2.78;;;25.30;61.50;;;;;;5075393;28;20045;-62
2022/07/21 00:53:24;;;;;;;8.98;3.65;;;25.30;61.60;;;;;;5075082;28;20524;-62
2022/07/21 00:55:49;;;;;;;5.60;2.58;;;25.30;61.60;;;;;;5074965;28;20510;-62
2022/07/21 00:58:15;;;;;;;5.07;2.83;;;25.30;61.60;;;;;;5074043;28;20539;-62
2022/07/21 01:00:40;;;;;;;5.10;2.65;;;25.30;61.70;;;;;;5073378;28;20041;-62
2022/07/21 01:03:06;;;;;;;6.10;3.10;;;25.30;61.70;;;;;;5075355;28;20388;-62
2022/07/21 01:05:32;;;;;;;4.32;2.55;;;25.30;61.70;;;;;;5075281;28;20041;-62
2022/07/21 01:08:02;;;;;;;4.57;2.70;;;25.30;61.70;;;;;;5073170;28;20040;-62
2022/07/21 01:10:28;;;;;;;6.20;2.97;;;25.30;61.80;;;;;;5075373;28;20086;-62
2022/07/21 01:12:53;;;;;;;5.40;2.72;;;25.30;61.80;;;;;;5073652;28;20048;-62
2022/07/21 01:15:19;;;;;;;5.05;2.53;;;25.20;61.80;;;;;;5074359;28;20044;-62
2022/07/21 01:17:45;;;;;;;5.78;3.13;;;25.20;61.80;;;;;;5074953;28;20040;-62
2022/07/21 01:20:13;;;;;;;4.75;2.72;;;25.20;61.80;;;;;;5073732;28;20091;-62
2022/07/21 01:22:40;;;;;;;4.68;2.63;;;25.20;61.80;;;;;;5074418;28;20055;-62
2022/07/21 01:25:05;;;;;;;4.57;2.65;;;25.30;61.90;;;;;;5074401;28;20071;-62
2022/07/21 01:27:31;;;;;;;4.90;2.88;;;25.20;61.90;;;;;;5074845;28;20044;-62
2022/07/21 01:29:57;;;;;;;4.78;2.72;;;25.20;61.90;;;;;;5073816;28;20087;-62
2022/07/21 01:32:22;;;;;;;5.13;2.72;;;25.20;61.90;;;;;;5075160;28;20041;-62
2022/07/21 01:34:48;;;;;;;5.60;2.75;;;25.20;61.90;;;;;;5073824;28;20049;-62
2022/07/21 01:37:14;;;;;;;4.90;2.75;;;25.30;62.10;;;;;;5074728;28;20184;-62
2022/07/21 01:42:24;;;;;;;4.82;3.13;;;25.20;62.00;;;;;;5072645;28;20400;-62
2022/07/21 01:44:49;;;;;;;6.93;3.15;;;25.20;62.10;;;;;;5074402;28;20040;-62
2022/07/21 01:47:17;;;;;;;4.88;2.95;;;25.30;62.10;;;;;;5074301;28;20044;-62
2022/07/21 01:49:43;;;;;;;5.20;2.75;;;25.20;62.10;;;;;;5073502;28;20411;-62
2022/07/21 01:52:08;;;;;;;5.28;2.78;;;25.20;62.20;;;;;;5073255;28;20484;-62
2022/07/21 01:54:34;;;;;;;5.68;3.22;;;25.20;62.20;;;;;;5074360;28;20047;-62
2022/07/21 01:57:00;;;;;;;5.85;2.78;;;25.20;62.20;;;;;;5073525;28;20047;-62
2022/07/21 01:59:25;;;;;;;6.93;2.80;;;25.20;62.20;;;;;;5074205;28;20040;-62
2022/07/21 02:01:51;;;;;;;3.70;2.42;;;25.20;62.20;;;;;;5073326;28;20186;-62
2022/07/21 02:04:16;;;;;;;5.93;3.10;;;25.20;62.20;;;;;;5073769;28;20040;-62
2022/07/21 02:06:42;;;;;;;4.68;2.80;;;25.20;62.30;;;;;;5074054;28;20045;-62
2022/07/21 02:09:08;;;;;;;4.25;2.60;;;25.20;62.40;;;;;;5073948;28;20041;-63
2022/07/21 02:11:34;;;;;;;4.22;2.65;;;25.20;62.40;;;;;;5072065;28;20067;-62
2022/07/21 02:13:59;;;;;;;5.95;3.05;;;25.20;62.40;;;;;;5072595;28;20064;-62
2022/07/21 02:16:25;;;;;;;5.80;2.35;;;25.20;62.40;;;;;;5073921;28;20076;-63
2022/07/21 02:18:50;;;;;;;3.58;2.60;;;25.20;62.40;;;;;;5073256;28;20464;-62
2022/07/21 02:21:16;;;;;;;4.97;2.70;;;25.20;62.50;;;;;;5073971;28;20053;-62
2022/07/21 02:23:41;;;;;;;5.47;3.33;;;25.20;62.50;;;;;;5073513;28;20036;-63
2022/07/21 02:26:07;;;;;;;4.68;3.00;;;25.20;62.50;;;;;;5072656;28;20063;-62
2022/07/21 02:28:33;;;;;;;5.47;2.85;;;25.20;62.50;;;;;;5073414;28;20056;-62
2022/07/21 02:30:58;;;;;;;5.47;2.80;;;25.20;62.50;;;;;;5090135;28;20059;-62
2022/07/21 02:33:24;;;;;;;5.03;3.03;;;25.20;62.50;;;;;;5093996;28;20131;-62
2022/07/21 02:35:49;;;;;;;5.28;3.00;;;25.20;62.50;;;;;;5093616;28;20128;-62
2022/07/21 02:38:15;;;;;;;8.00;2.90;;;25.20;62.50;;;;;;5093219;28;20174;-62
2022/07/21 02:40:41;;;;;;;6.55;2.97;;;25.20;63.20;;;;;;5092562;28;20087;-62
2022/07/21 02:43:06;;;;;;;4.38;2.70;;;25.20;62.60;;;;;;5093607;28;20040;-62
2022/07/21 02:45:33;;;;;;;4.63;2.85;;;25.20;62.60;;;;;;5092806;28;20040;-62
2022/07/21 02:47:59;;;;;;;5.43;2.60;;;25.20;62.60;;;;;;5093423;28;20051;-62
2022/07/21 02:50:26;;;;;;;6.30;3.25;;;25.20;62.70;;;;;;5093891;28;20094;-62
2022/07/21 02:52:56;;;;;;;6.75;3.05;;;25.20;62.70;;;;;;5092704;28;20079;-62
2022/07/21 02:55:22;;;;;;;5.00;2.88;;;25.20;62.70;;;;;;5093592;28;20483;-62
2022/07/21 02:57:47;;;;;;;4.93;3.03;;;25.20;62.70;;;;;;5093347;28;20101;-62
2022/07/21 03:00:13;;;;;;;4.70;2.85;;;25.10;62.60;;;;;;5092773;28;20115;-62
2022/07/21 03:02:38;;;;;;;5.63;2.90;;;25.10;62.70;;;;;;5093332;28;20048;-62
2022/07/21 03:05:04;;;;;;;4.18;2.50;;;25.20;62.70;;;;;;5091826;28;20036;-62
2022/07/21 03:07:30;;;;;;;4.80;2.67;;;25.20;62.80;;;;;;5092279;28;20059;-62
2022/07/21 03:09:55;;;;;;;4.78;2.95;;;25.10;62.70;;;;;;5093050;28;20043;-62
2022/07/21 03:12:21;;;;;;;4.25;2.97;;;25.20;62.80;;;;;;5093445;28;20093;-62
2022/07/21 03:14:46;;;;;;;4.50;2.60;;;25.20;62.80;;;;;;5092285;28;20510;-62
2022/07/21 03:17:12;;;;;;;4.60;2.97;;;25.10;62.80;;;;;;5092030;28;20484;-62
2022/07/21 03:19:37;;;;;;;4.63;2.72;;;25.10;62.80;;;;;;5093084;28;20047;-62
2022/07/21 03:22:03;;;;;;;4.30;2.65;;;25.10;62.80;;;;;;5091876;28;20048;-62
2022/07/21 03:24:29;;;;;;;6.20;3.00;;;25.10;62.80;;;;;;5092982;28;20048;-62
2022/07/21 03:26:55;;;;;;;4.95;2.92;;;25.10;62.90;;;;;;5092740;28;20044;-62
2022/07/21 03:29:21;;;;;;;5.57;3.00;;;25.10;62.90;;;;;;5092218;28;20077;-62
2022/07/21 03:31:47;;;;;;;5.80;2.72;;;25.10;62.90;;;;;;5092540;28;20062;-63
2022/07/21 03:34:12;;;;;;;4.78;3.15;;;25.10;62.90;;;;;;5092362;28;20036;-62
2022/07/21 03:36:38;;;;;;;3.78;2.72;;;25.10;62.90;;;;;;5092641;28;20062;-62
2022/07/21 03:39:03;;;;;;;4.72;3.00;;;25.10;62.90;;;;;;5091203;28;20040;-62
2022/07/21 03:41:29;;;;;;;6.47;3.50;;;25.10;63.00;;;;;;5090899;28;20047;-62
2022/07/21 03:43:54;;;;;;;5.20;3.13;;;25.10;63.00;;;;;;5092371;28;20079;-62
2022/07/21 03:46:20;;;;;;;4.75;2.75;;;25.10;63.00;;;;;;5091506;28;20044;-63
2022/07/21 03:48:45;;;;;;;5.82;3.22;;;25.10;63.00;;;;;;5091635;28;20051;-62
2022/07/21 03:51:11;;;;;;;5.18;2.90;;;25.10;63.00;;;;;;5092529;28;20552;-62
2022/07/21 03:53:37;;;;;;;4.72;2.80;;;25.10;63.00;;;;;;5093004;28;20043;-62
2022/07/21 03:56:02;;;;;;;4.70;2.90;;;25.10;63.00;;;;;;5091893;28;20040;-62
2022/07/21 03:58:28;;;;;;;4.65;3.00;;;25.10;63.00;;;;;;5092858;28;20032;-62
2022/07/21 04:00:53;;;;;;;4.47;3.00;;;25.10;63.70;;;;;;5081794;28;20447;-62
2022/07/21 04:03:19;;;;;;;4.47;2.60;;;25.10;63.10;;;;;;5058397;28;20514;-62
2022/07/21 04:05:44;;;;;;;4.40;2.83;;;25.10;63.10;;;;;;5071157;28;20496;-62
2022/07/21 04:08:11;;;;;;;5.38;2.83;;;25.10;63.10;;;;;;5071974;28;20373;-62
2022/07/21 04:10:37;;;;;;;5.88;3.22;;;25.10;63.10;;;;;;5071708;28;20094;-62
2022/07/21 04:13:08;;;;;;;5.00;3.08;;;25.10;63.20;;;;;;5072186;28;20052;-62
2022/07/21 04:15:33;;;;;;;3.97;2.80;;;25.10;63.20;;;;;;5071986;28;20059;-63
2022/07/21 04:17:59;;;;;;;5.32;3.25;;;25.10;63.20;;;;;;5071017;28;20048;-62
2022/07/21 04:20:25;;;;;;;5.10;3.20;;;25.10;63.20;;;;;;5071898;28;20148;-63
2022/07/21 04:22:50;;;;;;;5.82;3.13;;;25.00;63.20;;;;;;5070536;28;20467;-62
2022/07/21 04:25:16;;;;;;;5.35;3.38;;;25.10;63.20;;;;;;5071091;28;20052;-62
2022/07/21 04:27:42;;;;;;;5.05;2.92;;;25.10;63.20;;;;;;5072045;28;20048;-62
2022/07/21 04:30:10;;;;;;;5.45;3.58;;;25.10;63.30;;;;;;5070932;28;20049;-62
2022/07/21 04:32:35;;;;;;;5.55;3.17;;;25.10;63.30;;;;;;5071532;28;20051;-62
2022/07/21 04:35:01;;;;;;;4.70;3.33;;;25.00;63.20;;;;;;5071677;28;20427;-62
2022/07/21 04:37:27;;;;;;;6.07;3.42;;;25.00;63.20;;;;;;5076880;28;20487;-62
2022/07/21 04:39:52;;;;;;;4.63;3.08;;;25.00;63.30;;;;;;5091376;28;20493;-62
2022/07/21 04:42:18;;;;;;;4.78;2.88;;;25.00;63.30;;;;;;5092298;28;20098;-62
2022/07/21 04:44:43;;;;;;;4.80;3.20;;;25.00;63.30;;;;;;5091033;28;20044;-62
2022/07/21 04:47:09;;;;;;;4.78;3.13;;;25.00;63.30;;;;;;5090851;28;20048;-62
2022/07/21 04:49:34;;;;;;;5.10;3.65;;;25.00;63.30;;;;;;5091859;28;20040;-62
2022/07/21 04:52:00;;;;;;;6.35;3.33;;;25.00;63.30;;;;;;5091586;28;20432;-62
2022/07/21 04:54:25;;;;;;;5.63;3.45;;;25.00;63.30;;;;;;5096335;28;20036;-62
2022/07/21 04:56:51;;;;;;;4.75;3.45;;;25.00;63.30;;;;;;5095761;28;20043;-62
2022/07/21 04:59:17;;;;;;;5.10;3.25;;;25.00;63.30;;;;;;5094958;28;20197;-62
2022/07/21 05:01:42;;;;;;;6.68;3.40;;;25.00;63.40;;;;;;5094207;28;20047;-62
2022/07/21 05:04:08;;;;;;;5.88;3.72;;;25.00;63.40;;;;;;5095851;28;20446;-62
2022/07/21 05:06:33;;;;;;;5.75;3.78;;;25.00;63.50;;;;;;5094933;28;20121;-62
2022/07/21 05:08:59;;;;;;;5.45;3.33;;;25.00;63.50;;;;;;5093986;28;20079;-65
2022/07/21 05:11:25;;;;;;;12.13;8.30;;;25.00;63.40;;;;;;5095861;28;20081;-65
2022/07/21 05:13:51;;;;;;;13.68;11.20;;;25.00;63.90;;;;;;5094672;28;20101;-65
2022/07/21 05:16:16;;;;;;;14.75;11.70;;;24.90;64.70;;;;;;5095305;28;20048;-65
2022/07/21 05:18:42;;;;;;;15.13;12.05;;;24.80;65.50;;;;;;5094065;28;20075;-65
2022/07/21 05:21:08;;;;;;;19.00;12.52;;;24.70;66.30;;;;;;5094572;28;20056;-65
2022/07/21 05:23:33;;;;;;;16.83;13.23;;;24.60;66.90;;;;;;5094058;28;20149;-65
2022/07/21 05:25:59;;;;;;;17.15;12.93;;;24.50;67.30;;;;;;5094948;28;20056;-59
2022/07/21 05:28:26;;;;;;;15.75;12.80;;;24.30;67.70;;;;;;5094577;28;20044;-60
2022/07/21 05:30:52;;;;;;;17.63;12.97;;;24.20;68.10;;;;;;5095114;28;20040;-60
2022/07/21 05:33:17;;;;;;;17.98;13.10;;;24.10;68.50;;;;;;5095394;28;20051;-62
2022/07/21 05:35:43;;;;;;;15.93;12.70;;;24.00;68.80;;;;;;5094198;28;20051;-61
2022/07/21 05:38:08;;;;;;;15.07;12.63;;;23.90;69.10;;;;;;5095307;28;20040;-61
2022/07/21 05:40:34;;;;;;;18.38;13.68;;;23.80;69.30;;;;;;5094864;28;20131;-61
2022/07/21 05:42:59;;;;;;;19.65;13.40;;;23.70;69.60;;;;;;5093547;28;20040;-60
2022/07/21 05:45:25;;;;;;;17.92;13.27;;;23.70;70.00;;;;;;5094871;28;20036;-59
2022/07/21 05:47:50;;;;;;;15.82;12.73;;;23.70;70.50;;;;;;5094287;28;20054;-58
2022/07/21 05:50:16;;;;;;;15.85;13.02;;;23.60;70.50;;;;;;5094496;28;20070;-61
2022/07/21 05:52:41;;;;;;;18.92;13.45;;;23.50;70.90;;;;;;5095075;28;20124;-60
2022/07/21 05:55:08;;;;;;;20.33;13.30;;;23.50;71.20;;;;;;5094378;28;20044;-60
2022/07/21 05:57:33;;;;;;;18.25;13.68;;;23.40;71.50;;;;;;5094581;28;20495;-61
2022/07/21 05:59:59;;;;;;;19.90;14.65;;;23.40;71.60;;;;;;5079928;28;20068;-60
2022/07/21 06:02:25;;;;;;;19.70;13.98;;;23.40;71.60;;;;;;5072999;28;20557;-60
2022/07/21 06:04:52;;;;;;;18.48;13.55;;;23.40;71.60;;;;;;5073258;28;20363;-60
2022/07/21 06:07:17;;;;;;;17.73;13.43;;;23.30;71.70;;;;;;5074432;28;20105;-61
2022/07/21 06:09:43;;;;;;;19.90;14.23;;;23.20;71.90;;;;;;5073583;28;20036;-60
2022/07/21 06:12:09;;;;;;;20.50;13.32;;;23.20;72.10;;;;;;5074377;28;20381;-60
2022/07/21 06:14:35;;;;;;;20.27;13.45;;;23.20;72.20;;;;;;5074231;28;20040;-59
2022/07/21 06:17:00;;;;;;;20.77;14.57;;;23.20;72.30;;;;;;5073031;28;20043;-60
2022/07/21 06:19:26;;;;;;;18.08;14.00;;;23.10;72.40;;;;;;5073621;28;20812;-59
2022/07/21 06:21:51;;;;;;;21.02;14.88;;;23.10;72.50;;;;;;5073484;28;20043;-59
2022/07/21 06:24:19;;;;;;;20.55;14.90;;;23.10;72.40;;;;;;5075242;28;20048;-59
2022/07/21 06:26:45;;;;;;;18.77;15.00;;;23.10;72.50;;;;;;5093757;28;20044;-59
2022/07/21 06:29:10;;;;;;;18.55;14.38;;;23.10;72.50;;;;;;5093911;28;20515;-59
2022/07/21 06:31:36;;;;;;;18.50;13.90;;;23.10;72.80;;;;;;5092773;28;20132;-59
2022/07/21 06:34:01;;;;;;;19.38;14.20;;;23.10;72.80;;;;;;5093648;28;20058;-59
2022/07/21 06:36:27;;;;;;;17.38;13.77;;;23.10;72.90;;;;;;5093853;28;20028;-59
2022/07/21 06:38:52;;;;;;;17.52;13.38;;;23.00;73.00;;;;;;5073045;28;20488;-60
2022/07/21 06:41:18;;;;;;;21.17;13.80;;;23.00;73.00;;;;;;5071661;28;20050;-60
2022/07/21 06:43:43;;;;;;;19.92;13.48;;;23.00;73.00;;;;;;5072602;28;20040;-60
2022/07/21 06:46:09;;;;;;;18.50;14.20;;;23.00;73.20;;;;;;5071846;28;20044;-60
2022/07/21 06:48:34;;;;;;;20.38;14.05;;;23.00;73.30;;;;;;5065638;28;20041;-60
2022/07/21 06:51:00;;;;;;;19.35;14.55;;;22.90;73.50;;;;;;5054568;28;20048;-60
2022/07/21 06:53:26;;;;;;;18.58;13.75;;;22.90;73.60;;;;;;5052250;28;20052;-62
2022/07/21 06:55:53;;;;;;;18.73;12.50;;;22.90;74.20;;;;;;5055200;28;20491;-62
2022/07/21 06:58:20;;;;;;;14.25;11.45;;;22.90;73.60;;;;;;5067616;28;20397;-65
2022/07/21 07:00:46;;;;;;;15.97;11.47;;;23.00;73.30;;;;;;5072402;28;20055;-63
2022/07/21 07:03:12;;;;;;;13.27;9.80;;;23.10;73.10;;;;;;5072653;28;20551;-63
2022/07/21 07:05:37;;;;;;;13.52;9.85;;;23.20;73.00;;;;;;5070914;28;20120;-63
2022/07/21 07:08:03;;;;;;;13.98;10.57;;;23.30;72.90;;;;;;5071286;28;20131;-63
2022/07/21 07:10:29;;;;;;;14.48;9.93;;;23.40;72.80;;;;;;5073022;28;20036;-63
2022/07/21 07:12:55;;;;;;;11.95;9.77;;;23.50;72.70;;;;;;5070543;28;20161;-63
2022/07/21 07:15:22;;;;;;;12.10;9.38;;;23.60;72.60;;;;;;5071930;28;20454;-63
2022/07/21 07:17:47;;;;;;;14.07;10.60;;;23.70;72.60;;;;;;5072279;28;20153;-63
2022/07/21 07:20:13;;;;;;;12.75;8.82;;;23.70;72.50;;;;;;5071997;28;20076;-63
2022/07/21 07:22:38;;;;;;;14.45;9.93;;;23.70;72.40;;;;;;5071751;28;20112;-63
2022/07/21 07:25:04;;;;;;;13.25;9.73;;;23.80;72.30;;;;;;5072301;28;20060;-63
2022/07/21 07:27:30;;;;;;;14.52;9.80;;;23.90;72.20;;;;;;5071774;28;20048;-63
2022/07/21 07:29:55;;;;;;;16.17;10.00;;;23.90;71.90;;;;;;5072667;28;20383;-63
2022/07/21 07:32:21;;;;;;;14.00;9.55;;;23.90;71.60;;;;;;5072386;28;20472;-63
2022/07/21 07:34:46;;;;;;;11.93;9.88;;;24.00;71.70;;;;;;5070506;28;20060;-63
2022/07/21 07:37:12;;;;;;;13.68;10.05;;;24.00;71.60;;;;;;5072564;28;20049;-62
2022/07/21 07:39:38;;;;;;;16.35;11.52;;;24.00;71.40;;;;;;5072457;28;20053;-62
2022/07/21 07:42:04;;;;;;;13.35;9.95;;;24.10;71.10;;;;;;5070028;28;20434;-63
2022/07/21 07:44:31;;;;;;;13.80;9.73;;;24.10;71.10;;;;;;5071319;28;20052;-63
2022/07/21 07:46:56;;;;;;;15.98;10.45;;;24.10;71.00;;;;;;5071965;28;20045;-62
2022/07/21 07:49:22;;;;;;;15.55;10.60;;;24.20;70.90;;;;;;5071625;28;20044;-62
2022/07/21 07:51:48;;;;;;;14.48;10.18;;;24.20;70.90;;;;;;5072352;28;20094;-63
2022/07/21 07:54:14;;;;;;;13.13;10.45;;;24.20;70.80;;;;;;5072817;28;20048;-60
2022/07/21 07:56:39;;;;;;;17.38;12.07;;;24.20;70.70;;;;;;5071548;28;20048;-60
2022/07/21 07:59:05;;;;;;;19.30;14.25;;;24.30;70.40;;;;;;5072004;28;20052;-60
2022/07/21 08:01:30;;;;;;;20.08;14.75;;;24.20;70.20;;;;;;5071651;28;20102;-60
2022/07/21 08:03:56;;;;;;;21.45;13.93;;;24.30;70.40;;;;;;5070682;28;20044;-60
2022/07/21 08:06:22;;;;;;;17.63;12.60;;;24.20;70.20;;;;;;5072413;28;20047;-61
2022/07/21 08:08:47;;;;;;;15.73;12.75;;;24.20;70.20;;;;;;5071232;28;20045;-61
2022/07/21 08:11:13;;;;;;;16.15;13.05;;;24.20;70.10;;;;;;5072148;28;20040;-61
2022/07/21 08:13:38;;;;;;;16.90;12.52;;;24.20;70.00;;;;;;5072245;28;20089;-61
2022/07/21 08:16:04;;;;;;;20.02;13.10;;;24.20;69.90;;;;;;5071422;28;20045;-61
2022/07/21 08:18:30;;;;;;;16.95;12.88;;;24.20;69.60;;;;;;5071074;28;20175;-61
2022/07/21 08:20:55;;;;;;;13.50;11.20;;;24.20;69.60;;;;;;5072208;28;20044;-61
2022/07/21 08:23:21;;;;;;;14.38;10.80;;;24.20;69.60;;;;;;5070897;28;20033;-61
2022/07/21 08:25:46;;;;;;;14.93;11.65;;;24.30;69.60;;;;;;5071695;28;20053;-61
2022/07/21 08:28:12;;;;;;;21.65;13.98;;;24.30;69.70;;;;;;5074677;28;20041;-60
2022/07/21 08:30:38;;;;;;;16.20;13.15;;;24.20;69.40;;;;;;5075574;28;20048;-61
2022/07/21 08:33:04;;;;;;;17.02;13.60;;;24.30;69.30;;;;;;5091720;28;20491;-61
2022/07/21 08:35:29;;;;;;;17.52;12.98;;;24.20;69.10;;;;;;5075630;28;20078;-60
2022/07/21 08:38:06;;;;;;;18.45;14.35;;;24.20;69.00;;;;;;5074902;28;20028;-60
2022/07/21 08:40:36;;;;;;;20.55;13.82;;;24.30;68.90;;;;;;5074560;28;20078;-61
2022/07/21 08:43:02;;;;;;;17.73;13.85;;;24.20;68.70;;;;;;5073219;28;20207;-61
2022/07/21 08:45:29;;;;;;;16.88;12.48;;;24.20;68.60;;;;;;5075243;28;20123;-61
2022/07/21 08:47:57;;;;;;;14.00;11.50;;;24.20;68.60;;;;;;5075622;28;20037;-61
2022/07/21 08:50:24;;;;;;;14.80;11.85;;;24.30;68.80;;;;;;5075849;28;20438;-61
2022/07/21 08:52:50;;;;;;;15.55;11.88;;;24.20;68.80;;;;;;5075058;28;20079;-61
2022/07/21 08:55:16;;;;;;;15.13;11.57;;;24.30;68.90;;;;;;5075983;28;20447;-61
2022/07/21 08:57:41;;;;;;;17.85;12.00;;;24.30;68.70;;;;;;5075042;28;20036;-60
2022/07/21 09:00:08;;;;;;;13.77;10.68;;;24.30;68.30;;;;;;5074005;28;20048;-60
2022/07/21 09:02:34;;;;;;;12.18;9.90;;;24.30;68.30;;;;;;5074862;28;20036;-60
2022/07/21 09:05:00;;;;;;;13.60;10.85;;;24.20;68.10;;;;;;5074368;28;20048;-63
2022/07/21 09:07:26;;;;;;;14.73;10.88;;;24.30;68.00;;;;;;5075113;28;20036;-62
2022/07/21 09:10:01;;;;;;;14.13;10.18;;;24.30;67.90;;;;;;5071404;28;20079;-61
2022/07/21 09:12:27;;;;;;;21.70;10.90;;;24.30;67.90;;;;;;5073005;28;20044;-61
2022/07/21 09:15:18;;;;;;;19.67;9.88;;;24.30;68.20;;;;;;5074750;28;20450;-61
2022/07/21 09:17:44;;;;;;;16.15;10.73;;;24.30;68.20;;;;;;5073399;28;20040;-61
2022/07/21 09:20:30;;;;;;;14.68;9.90;;;24.30;68.20;;;;;;5074348;28;20136;-61
2022/07/21 09:23:02;;;;;;;16.25;10.15;;;24.40;68.20;;;;;;5074522;28;20056;-61
2022/07/21 09:25:40;;;;;;;13.43;10.63;;;24.40;68.30;;;;;;5074955;28;20056;-61
2022/07/21 09:28:17;;;;;;;14.07;10.10;;;24.40;68.20;;;;;;5073744;28;20052;-61
2022/07/21 09:30:51;;;;;;;15.73;11.50;;;24.40;68.20;;;;;;5073606;28;20472;-61
2022/07/21 09:33:33;;;;;;;19.58;12.27;;;24.50;68.00;;;;;;5073126;28;20097;-60
2022/07/21 09:36:08;;;;;;;17.48;10.88;;;24.50;67.50;;;;;;5074259;28;20040;-60
2022/07/21 09:38:39;;;;;;;14.50;11.20;;;24.50;67.70;;;;;;5069978;28;20098;-61
2022/07/21 09:41:14;;;;;;;14.35;10.43;;;24.50;67.80;;;;;;5072987;28;20569;-62
2022/07/21 09:43:48;;;;;;;16.15;11.07;;;24.50;67.60;;;;;;5089648;28;20044;-61
2022/07/21 09:46:19;;;;;;;14.40;9.70;;;24.60;67.50;;;;;;5072520;28;20049;-60
2022/07/21 09:48:46;;;;;;;15.63;10.38;;;24.60;67.40;;;;;;5075549;28;20051;-59
2022/07/21 09:51:41;;;;;;;15.55;11.50;;;24.70;67.40;;;;;;5071315;28;20072;-60
2022/07/21 09:54:10;;;;;;;15.23;10.13;;;24.60;67.40;;;;;;5070972;28;20057;-61
2022/07/21 09:56:40;;;;;;;14.55;10.95;;;24.70;67.50;;;;;;5074501;28;20064;-69
2022/07/21 09:59:06;;;;;;;13.75;10.32;;;24.70;67.30;;;;;;5072322;28;20048;-63
2022/07/21 10:01:32;;;;;;;15.85;11.65;;;24.70;67.20;;;;;;5072798;28;20115;-62
2022/07/21 10:03:58;;;;;;;16.48;12.15;;;24.70;67.10;;;;;;5072459;28;20127;-62
2022/07/21 10:06:27;;;;;;;18.52;13.90;;;24.70;66.90;;;;;;5072790;28;20040;-63
2022/07/21 10:08:54;;;;;;;19.27;14.32;;;24.70;66.80;;;;;;5070938;28;20064;-63
2022/07/21 10:11:20;;;;;;;25.17;16.75;;;24.70;66.80;;;;;;5072539;28;20044;-62
2022/07/21 10:13:46;;;;;;;25.33;16.60;;;24.60;66.80;;;;;;5071443;28;20059;-63
2022/07/21 10:16:11;;;;;;;19.25;15.13;;;24.50;66.80;;;;;;5071592;28;20128;-63
2022/07/21 10:18:59;;;;;;;21.70;15.05;;;24.50;66.90;;;;;;5074142;28;20060;-64
2022/07/21 10:21:27;;;;;;;21.15;15.45;;;24.50;66.80;;;;;;5072615;28;20045;-63
2022/07/21 10:23:54;;;;;;;26.65;17.20;;;24.50;66.90;;;;;;5072601;28;20520;-64
2022/07/21 10:26:19;;;;;;;27.10;16.92;;;24.50;67.00;;;;;;5056532;28;20072;-63
2022/07/21 10:28:45;;;;;;;23.38;16.17;;;24.40;67.10;;;;;;5072436;28;20084;-64
2022/07/21 10:31:17;;;;;;;25.77;17.67;;;24.40;67.30;;;;;;5071501;28;20045;-64
2022/07/21 10:33:49;;;;;;;23.83;16.45;;;24.40;67.50;;;;;;5073618;28;20139;-64
2022/07/21 10:36:26;;;;;;;21.27;15.30;;;24.40;67.70;;;;;;5071108;28;20158;-68
2022/07/21 10:39:18;;;;;;;23.20;17.15;;;24.40;67.70;;;;;;5073536;28;20047;-60
2022/07/21 10:42:13;;;;;;;26.25;19.23;;;24.40;68.00;;;;;;5073438;28;20124;-61
2022/07/21 10:44:39;;;;;;;28.40;19.10;;;24.40;68.30;;;;;;5072934;28;20048;-61
2022/07/21 10:47:09;;;;;;;25.98;17.50;;;24.40;68.10;;;;;;5073115;28;20361;-61
2022/07/21 10:49:43;;;;;;;25.63;18.33;;;24.40;68.30;;;;;;5073310;28;20098;-61
2022/07/21 10:52:49;;;;;;;26.05;19.05;;;24.40;68.10;;;;;;5072595;28;20040;-61
2022/07/21 10:55:25;;;;;;;27.90;18.90;;;24.30;68.20;;;;;;5031295;28;20049;-61
2022/07/21 10:58:24;;;;;;;27.45;18.95;;;24.30;68.20;;;;;;5068336;28;20091;-61
2022/07/21 11:01:14;;;;;;;26.25;18.55;;;24.30;68.30;;;;;;5064734;28;20064;-61
2022/07/21 11:03:40;;;;;;;24.88;16.48;;;24.30;68.40;;;;;;5073421;28;20059;-61
2022/07/21 11:06:09;;;;;;;27.02;19.20;;;24.30;68.50;;;;;;5088016;28;20052;-61
2022/07/21 11:08:44;;;;;;;26.48;18.13;;;24.30;68.20;;;;;;5073207;28;20083;-61
2022/07/21 11:11:15;;;;;;;26.15;18.63;;;24.30;68.30;;;;;;5072659;28;20052;-61
2022/07/21 11:14:09;;;;;;;37.47;20.38;;;24.30;68.30;;;;;;5071564;28;20411;-61
2022/07/21 11:16:52;;;;;;;27.15;18.00;;;24.30;68.20;;;;;;5071053;28;20075;-61
2022/07/21 11:19:34;;;;;;;23.23;15.55;;;24.40;68.00;;;;;;5070705;28;20052;-61
2022/07/21 11:22:09;;;;;;;24.40;17.05;;;24.40;67.50;;;;;;5071664;28;20071;-64
2022/07/21 11:24:35;;;;;;;25.10;17.33;;;24.30;67.50;;;;;;5072200;28;20052;-61
2022/07/21 11:27:21;;;;;;;22.67;16.50;;;24.30;67.50;;;;;;5070907;28;20044;-60
2022/07/21 11:29:49;;;;;;;24.30;15.85;;;24.30;67.50;;;;;;5070260;28;20665;-61
2022/07/21 11:32:15;;;;;;;24.58;16.02;;;24.40;67.50;;;;;;5072719;28;20053;-60
2022/07/21 11:34:52;;;;;;;24.48;15.68;;;24.40;67.50;;;;;;5072076;28;20078;-61
2022/07/21 11:37:25;;;;;;;22.13;17.38;;;24.40;67.60;;;;;;5072105;28;20056;-61
2022/07/21 11:39:51;;;;;;;27.42;18.77;;;24.40;67.70;;;;;;5071345;28;20083;-60
2022/07/21 11:42:16;;;;;;;22.13;15.43;;;24.40;68.20;;;;;;5070889;28;20083;-67
2022/07/21 11:44:42;;;;;;;22.75;15.27;;;24.40;67.70;;;;;;5072678;28;20056;-67
2022/07/21 11:47:10;;;;;;;22.10;15.60;;;24.50;67.70;;;;;;5071401;28;20066;-67
2022/07/21 11:49:36;;;;;;;22.60;14.85;;;24.50;67.70;;;;;;5087827;28;20436;-67
2022/07/21 11:52:04;;;;;;;20.02;14.13;;;24.50;67.60;;;;;;5072359;28;20535;-67
2022/07/21 11:54:39;;;;;;;19.70;15.13;;;24.60;67.60;;;;;;5070438;28;20040;-66
2022/07/21 11:57:06;;;;;;;18.58;13.95;;;24.60;67.50;;;;;;5072036;28;20048;-67
2022/07/21 11:59:32;;;;;;;17.50;13.65;;;24.60;67.50;;;;;;5071106;28;20053;-66
2022/07/21 12:02:06;;;;;;;20.25;14.15;;;24.60;67.40;;;;;;5070650;28;20056;-66
2022/07/21 12:04:46;;;;;;;16.40;12.75;;;24.60;67.40;;;;;;5072078;28;20480;-66
2022/07/21 12:07:25;;;;;;;15.70;12.57;;;24.60;67.40;;;;;;5072266;28;20045;-67
2022/07/21 12:10:01;;;;;;;15.85;12.43;;;24.70;67.50;;;;;;5071204;28;20476;-66
2022/07/21 12:12:28;;;;;;;16.95;12.43;;;24.70;67.50;;;;;;5072397;28;20036;-66
2022/07/21 12:14:54;;;;;;;17.02;11.60;;;24.70;67.40;;;;;;5071324;28;20055;-66
2022/07/21 12:17:34;;;;;;;15.10;12.27;;;24.70;67.40;;;;;;5071920;28;20131;-67
2022/07/21 12:19:59;;;;;;;18.38;12.50;;;24.70;67.50;;;;;;5071872;28;20410;-66
2022/07/21 12:22:44;;;;;;;16.27;11.57;;;24.70;67.40;;;;;;5071612;28;20527;-66
2022/07/21 12:25:10;;;;;;;14.48;11.55;;;24.80;67.50;;;;;;5072016;28;20049;-66
2022/07/21 12:27:37;;;;;;;16.60;11.75;;;24.80;67.50;;;;;;5071945;28;20486;-66
2022/07/21 12:30:04;;;;;;;13.65;12.07;;;24.80;67.50;;;;;;5070767;28;20568;-67
2022/07/21 12:32:44;;;;;;;14.07;11.70;;;24.80;67.50;;;;;;5072001;28;20057;-67
2022/07/21 12:35:37;;;;;;;13.75;11.20;;;24.80;67.40;;;;;;5072219;28;20051;-67
2022/07/21 12:38:13;;;;;;;12.82;11.10;;;24.80;67.30;;;;;;5068958;28;20056;-66
2022/07/21 12:40:43;;;;;;;14.13;11.70;;;24.80;67.30;;;;;;5070586;28;20345;-66